Check out our new BloomSky Weather System.

Active alerts

Houston, TX
  Details for Houston, TX Heat Advisory  +1 additional alert
Galveston, TX
  Details for Galveston, TX Air Quality Alert


Thunder radar  blitzortung!


Rain radar more information rain snow radar


Visit our other weather sites:

Template documentation
and downloads

And another site



Weather Underground History page Text

Daily Summary for September 20, 2017 Units:  English    Metric   Both
« Previous Day
Next Day »
Daily Weekly Monthly Yearly Custom
  High: Low: Average:
Temperature: TemperatureF °F 77.7 °F 84.3 °F
Dew Point: DewpointF °F 73.4 °F 77.5 °F
Humidity: Humidity % 56 % 81 %
Wind Speed: WindSpeedMPH mph 0.0 mph 3.3 mph
Wind Gust: WindSpeedGustMPH mph - -
Wind:- - SSE
Pressure: PressureIn in 29.84 in -
Precipitation: 0.00 in    
Historical Graphs
 
 
Tabular Data for September 20, 2017
Time Temperature Dew Point Pressure Wind Wind Speed Wind Gust Humidity Rainfall Rate (Hourly)
TemperatureF °F DewpointF °F PressureIn in Calm     Humidity % HourlyPrecipIn in
00:04 80.1 °F 77.5 °F 29.87 in SE 1.0 mph 6.0 mph 92 % 0.00 in
00:09 80.1 °F 77.5 °F 29.87 in ESE 3.0 mph 6.0 mph 92 % 0.00 in
00:14 80.1 °F 77.5 °F 29.87 in SE 3.0 mph 6.0 mph 92 % 0.00 in
00:19 80.1 °F 77.5 °F 29.87 in SSE 2.0 mph 6.0 mph 92 % 0.00 in
00:24 79.9 °F 77.4 °F 29.87 in ESE 1.0 mph 6.0 mph 92 % 0.00 in
00:29 79.9 °F 77.4 °F 29.87 in East 2.0 mph 4.0 mph 92 % 0.00 in
00:34 79.9 °F 77.4 °F 29.87 in SE 2.0 mph 4.0 mph 92 % 0.00 in
00:39 79.7 °F 77.5 °F 29.87 in SSE 3.0 mph 4.0 mph 93 % 0.00 in
00:44 79.7 °F 77.5 °F 29.87 in East 3.0 mph 4.0 mph 93 % 0.00 in
00:49 79.7 °F 77.5 °F 29.87 in East 2.0 mph 5.0 mph 93 % 0.00 in
00:54 79.7 °F 77.5 °F 29.87 in ESE 1.0 mph 6.0 mph 93 % 0.00 in
00:59 79.7 °F 77.5 °F 29.87 in SE 1.0 mph 6.0 mph 93 % 0.00 in
01:04 79.7 °F 77.5 °F 29.87 in SE 1.0 mph 6.0 mph 93 % 0.00 in
01:09 79.7 °F 77.5 °F 29.88 in ESE 1.0 mph 4.0 mph 93 % 0.00 in
01:14 79.7 °F 77.5 °F 29.88 in East 2.0 mph 3.0 mph 93 % 0.00 in
01:19 79.7 °F 77.5 °F 29.87 in SE 3.0 mph 3.0 mph 93 % 0.00 in
01:24 79.7 °F 77.5 °F 29.87 in ESE 4.0 mph 4.0 mph 93 % 0.00 in
01:29 79.7 °F 77.5 °F 29.87 in ESE 2.0 mph 4.0 mph 93 % 0.00 in
01:34 79.7 °F 77.5 °F 29.87 in East 2.0 mph 4.0 mph 93 % 0.00 in
01:39 79.7 °F 77.5 °F 29.87 in Calm   5.0 mph 93 % 0.00 in
01:44 79.9 °F 77.7 °F 29.88 in SE 1.0 mph 5.0 mph 93 % 0.00 in
01:49 79.9 °F 77.7 °F 29.88 in SE 1.0 mph 5.0 mph 93 % 0.00 in
01:54 79.9 °F 78.1 °F 29.88 in ESE 1.0 mph 3.0 mph 94 % 0.00 in
01:59 79.9 °F 78.1 °F 29.88 in SE 3.0 mph 4.0 mph 94 % 0.00 in
02:04 79.9 °F 78.1 °F 29.88 in SE 2.0 mph 5.0 mph 94 % 0.00 in
02:09 79.9 °F 78.1 °F 29.88 in SSW 2.0 mph 5.0 mph 94 % 0.00 in
02:14 79.9 °F 78.1 °F 29.88 in South 3.0 mph 5.0 mph 94 % 0.00 in
02:19 79.7 °F 77.9 °F 29.88 in South 7.0 mph 7.0 mph 94 % 0.00 in
02:24 79.5 °F 77.7 °F 29.88 in SSE 3.0 mph 7.0 mph 94 % 0.00 in
02:30 79.5 °F 77.7 °F 29.87 in South 2.0 mph 7.0 mph 94 % 0.00 in
02:35 79.5 °F 77.7 °F 29.87 in South 4.0 mph 7.0 mph 94 % 0.00 in
02:40 79.5 °F 77.7 °F 29.87 in SE 1.0 mph 6.0 mph 94 % 0.00 in
02:45 79.5 °F 77.7 °F 29.87 in South 2.0 mph 6.0 mph 94 % 0.00 in
02:50 79.5 °F 77.9 °F 29.88 in SE 2.0 mph 6.0 mph 95 % 0.00 in
02:55 79.5 °F 77.9 °F 29.87 in ESE 1.0 mph 4.0 mph 95 % 0.00 in
03:00 79.5 °F 77.9 °F 29.88 in SSE 2.0 mph 3.0 mph 95 % 0.00 in
03:05 79.5 °F 77.9 °F 29.88 in Calm   3.0 mph 95 % 0.00 in
03:10 79.5 °F 77.9 °F 29.88 in SSW 1.0 mph 3.0 mph 95 % 0.00 in
03:15 79.5 °F 77.9 °F 29.87 in SE 1.0 mph 3.0 mph 95 % 0.00 in
03:20 79.5 °F 77.9 °F 29.88 in SSE 1.0 mph 3.0 mph 95 % 0.00 in
03:25 79.5 °F 77.9 °F 29.87 in SSE 1.0 mph 3.0 mph 95 % 0.00 in
03:30 79.7 °F 78.1 °F 29.87 in SSE 1.0 mph 4.0 mph 95 % 0.00 in
03:35 79.7 °F 78.1 °F 29.87 in ESE 2.0 mph 4.0 mph 95 % 0.00 in
03:40 79.7 °F 77.9 °F 29.87 in South 1.0 mph 4.0 mph 94 % 0.00 in
03:45 79.7 °F 77.9 °F 29.87 in SSE 3.0 mph 4.0 mph 94 % 0.00 in
03:50 79.5 °F 77.7 °F 29.87 in East 2.0 mph 3.0 mph 94 % 0.00 in
03:55 79.5 °F 77.9 °F 29.87 in Calm   4.0 mph 95 % 0.00 in
04:00 79.5 °F 77.9 °F 29.87 in ESE 1.0 mph 4.0 mph 95 % 0.00 in
04:05 79.3 °F 77.7 °F 29.87 in ESE 2.0 mph 4.0 mph 95 % 0.00 in
04:10 79.3 °F 77.7 °F 29.87 in ESE 2.0 mph 3.0 mph 95 % 0.00 in
04:15 79.3 °F 77.7 °F 29.87 in SE 1.0 mph 3.0 mph 95 % 0.00 in
04:20 79.3 °F 77.7 °F 29.88 in ESE 1.0 mph 3.0 mph 95 % 0.00 in
04:25 79.3 °F 77.7 °F 29.87 in SE 1.0 mph 3.0 mph 95 % 0.00 in
04:30 79.3 °F 77.7 °F 29.88 in Calm   3.0 mph 95 % 0.00 in
04:35 79.2 °F 77.5 °F 29.88 in SE 1.0 mph 3.0 mph 95 % 0.00 in
04:40 79.2 °F 77.5 °F 29.88 in Calm   3.0 mph 95 % 0.00 in
04:45 79.2 °F 77.9 °F 29.88 in SE 2.0 mph 4.0 mph 96 % 0.00 in
04:50 79.2 °F 77.9 °F 29.88 in South 3.0 mph 4.0 mph 96 % 0.00 in
04:55 79.2 °F 77.9 °F 29.88 in SSE 2.0 mph 4.0 mph 96 % 0.00 in
05:00 79.2 °F 77.9 °F 29.88 in SE 2.0 mph 3.0 mph 96 % 0.00 in
05:05 79.2 °F 77.9 °F 29.88 in East 1.0 mph 3.0 mph 96 % 0.00 in
05:10 79.2 °F 77.9 °F 29.88 in SSE 1.0 mph 3.0 mph 96 % 0.00 in
05:15 79.0 °F 77.7 °F 29.88 in SSE 1.0 mph 3.0 mph 96 % 0.00 in
05:20 79.0 °F 77.7 °F 29.89 in East 2.0 mph 3.0 mph 96 % 0.00 in
05:25 79.0 °F 77.7 °F 29.89 in Calm   3.0 mph 96 % 0.00 in
05:30 78.8 °F 77.5 °F 29.89 in Calm   3.0 mph 96 % 0.00 in
05:35 78.6 °F 77.4 °F 29.89 in Calm   3.0 mph 96 % 0.00 in
05:40 78.4 °F 77.2 °F 29.90 in SE 1.0 mph 1.0 mph 96 % 0.00 in
05:45 78.4 °F 77.5 °F 29.90 in South 1.0 mph 2.0 mph 97 % 0.00 in
05:50 78.4 °F 77.5 °F 29.89 in Calm   2.0 mph 97 % 0.00 in
05:55 78.4 °F 77.5 °F 29.90 in SSE 1.0 mph 2.0 mph 97 % 0.00 in
06:00 78.6 °F 77.7 °F 29.90 in Calm   2.0 mph 97 % 0.00 in
06:05 78.6 °F 77.7 °F 29.90 in SSE 4.0 mph 4.0 mph 97 % 0.00 in
06:10 78.6 °F 77.7 °F 29.90 in South 1.0 mph 4.0 mph 97 % 0.00 in
06:15 78.6 °F 77.7 °F 29.90 in South 1.0 mph 4.0 mph 97 % 0.00 in
06:20 78.4 °F 77.5 °F 29.90 in Calm   4.0 mph 97 % 0.00 in
06:25 78.4 °F 77.5 °F 29.91 in Calm   2.0 mph 97 % 0.00 in
06:30 78.3 °F 77.4 °F 29.91 in Calm   2.0 mph 97 % 0.00 in
06:35 78.3 °F 77.4 °F 29.91 in SSE 1.0 mph 1.0 mph 97 % 0.00 in
06:40 78.1 °F 77.2 °F 29.91 in Calm   2.0 mph 97 % 0.00 in
06:45 78.1 °F 77.2 °F 29.91 in Calm   2.0 mph 97 % 0.00 in
06:50 78.1 °F 77.5 °F 29.91 in SSE 1.0 mph 2.0 mph 98 % 0.00 in
06:55 78.1 °F 77.5 °F 29.91 in Calm   2.0 mph 98 % 0.00 in
07:00 77.9 °F 77.4 °F 29.91 in Calm   2.0 mph 98 % 0.00 in
07:06 77.7 °F 77.2 °F 29.91 in Calm   2.0 mph 98 % 0.00 in
07:11 77.7 °F 77.2 °F 29.92 in Calm     98 % 0.00 in
07:16 77.7 °F 77.2 °F 29.92 in Calm   1.0 mph 98 % 0.00 in
07:19 77.7 °F 77.2 °F 29.92 in SSE 1.0 mph 1.0 mph 98 % 0.00 in
07:24 77.7 °F 77.2 °F 29.91 in South 1.0 mph 2.0 mph 98 % 0.00 in
07:29 77.9 °F 77.4 °F 29.91 in SE 2.0 mph 3.0 mph 98 % 0.00 in
07:34 78.1 °F 77.5 °F 29.91 in SSE 1.0 mph 3.0 mph 98 % 0.00 in
07:39 78.3 °F 77.7 °F 29.91 in SSE 2.0 mph 4.0 mph 98 % 0.00 in
07:44 78.3 °F 77.7 °F 29.91 in Calm   4.0 mph 98 % 0.00 in
07:49 78.6 °F 78.1 °F 29.91 in SE 2.0 mph 4.0 mph 98 % 0.00 in
07:50 78.6 °F 78.1 °F 29.91 in SSE 1.0 mph 4.0 mph 98 % 0.00 in
07:55 79.0 °F 78.4 °F 29.91 in SE 1.0 mph 4.0 mph 98 % 0.00 in
08:00 79.3 °F 78.4 °F 29.92 in SSE 1.0 mph 4.0 mph 97 % 0.00 in
08:05 79.7 °F 78.8 °F 29.91 in SSE 2.0 mph 4.0 mph 97 % 0.00 in
08:10 79.9 °F 78.6 °F 29.91 in SE 3.0 mph 4.0 mph 96 % 0.00 in
08:15 80.2 °F 78.6 °F 29.91 in SSE 4.0 mph 4.0 mph 95 % 0.00 in
08:20 80.8 °F 79.2 °F 29.91 in SSE 3.0 mph 6.0 mph 95 % 0.00 in
08:25 81.0 °F 79.0 °F 29.91 in South 3.0 mph 6.0 mph 94 % 0.00 in
08:30 81.3 °F 79.3 °F 29.92 in SE 1.0 mph 6.0 mph 94 % 0.00 in
08:35 81.9 °F 79.7 °F 29.92 in South 3.0 mph 5.0 mph 93 % 0.00 in
08:40 82.2 °F 79.7 °F 29.92 in South 2.0 mph 5.0 mph 92 % 0.00 in
08:45 82.6 °F 79.7 °F 29.92 in South 3.0 mph 8.0 mph 91 % 0.00 in
08:50 82.9 °F 80.1 °F 29.92 in SE 3.0 mph 8.0 mph 91 % 0.00 in
08:55 83.5 °F 79.9 °F 29.92 in SSE 3.0 mph 8.0 mph 89 % 0.00 in
09:00 83.7 °F 80.1 °F 29.93 in SE 5.0 mph 6.0 mph 89 % 0.00 in
09:05 83.7 °F 79.7 °F 29.93 in SSW 3.0 mph 7.0 mph 88 % 0.00 in
09:10 83.7 °F 80.1 °F 29.93 in ESE 5.0 mph 7.0 mph 89 % 0.00 in
09:11 83.7 °F 80.1 °F 29.93 in SSE 4.0 mph 7.0 mph 89 % 0.00 in
09:16 83.5 °F 79.5 °F 29.93 in SSE 6.0 mph 10.0 mph 88 % 0.00 in
09:21 83.5 °F 79.5 °F 29.93 in South 7.0 mph 11.0 mph 88 % 0.00 in
09:26 83.7 °F 79.7 °F 29.93 in SSE 6.0 mph 11.0 mph 88 % 0.00 in
09:31 84.0 °F 79.3 °F 29.93 in ESE 4.0 mph 11.0 mph 86 % 0.00 in
09:36 84.7 °F 79.7 °F 29.93 in SSE 5.0 mph 9.0 mph 85 % 0.00 in
09:41 84.9 °F 79.5 °F 29.93 in SE 6.0 mph 9.0 mph 84 % 0.00 in
09:46 84.9 °F 79.5 °F 29.94 in SE 3.0 mph 10.0 mph 84 % 0.00 in
09:51 85.3 °F 79.2 °F 29.94 in SSE 5.0 mph 10.0 mph 82 % 0.00 in
10:01 85.8 °F 79.3 °F 29.94 in SSE 6.0 mph 10.0 mph 81 % 0.00 in
10:06 86.2 °F 79.3 °F 29.94 in SE 6.0 mph 10.0 mph 80 % 0.00 in
10:11 86.4 °F 79.5 °F 29.94 in SSE 4.0 mph 11.0 mph 80 % 0.00 in
10:16 86.7 °F 79.3 °F 29.94 in SSE 5.0 mph 11.0 mph 79 % 0.00 in
10:21 87.3 °F 79.5 °F 29.94 in SSE 4.0 mph 11.0 mph 78 % 0.00 in
10:26 87.4 °F 79.3 °F 29.94 in SE 1.0 mph 10.0 mph 77 % 0.00 in
10:31 87.4 °F 79.0 °F 29.94 in SSE 5.0 mph 10.0 mph 76 % 0.00 in
10:36 87.1 °F 78.6 °F 29.94 in SSW 4.0 mph 10.0 mph 76 % 0.00 in
10:46 86.9 °F 79.2 °F 29.94 in SSW 2.0 mph 7.0 mph 78 % 0.00 in
10:51 87.1 °F 79.3 °F 29.94 in SSW 2.0 mph 7.0 mph 78 % 0.00 in
10:56 86.9 °F 78.4 °F 29.94 in SE 4.0 mph 7.0 mph 76 % 0.00 in
11:01 87.1 °F 79.3 °F 29.94 in SSE 3.0 mph 8.0 mph 78 % 0.00 in
11:06 87.6 °F 79.5 °F 29.94 in SSW 2.0 mph 8.0 mph 77 % 0.00 in
11:11 88.5 °F 79.5 °F 29.94 in SSW 3.0 mph 8.0 mph 75 % 0.00 in
11:16 88.9 °F 78.6 °F 29.94 in SSE 6.0 mph 8.0 mph 72 % 0.00 in
11:21 88.3 °F 78.1 °F 29.94 in South 6.0 mph 8.0 mph 72 % 0.00 in
11:26 88.0 °F 78.6 °F 29.94 in SSE 6.0 mph 9.0 mph 74 % 0.00 in
11:31 88.3 °F 79.9 °F 29.94 in South 2.0 mph 9.0 mph 76 % 0.00 in
11:36 89.2 °F 80.6 °F 29.94 in SSW 2.0 mph 9.0 mph 76 % 0.00 in
11:41 89.8 °F 78.6 °F 29.94 in SSW 5.0 mph 11.0 mph 70 % 0.00 in
11:46 90.1 °F 79.0 °F 29.94 in SE 5.0 mph 11.0 mph 70 % 0.00 in
11:51 90.5 °F 78.4 °F 29.94 in SSW 1.0 mph 11.0 mph 68 % 0.00 in
11:56 90.3 °F 78.8 °F 29.94 in SE 4.0 mph 10.0 mph 69 % 0.00 in
12:01 90.3 °F 79.2 °F 29.93 in SSW 2.0 mph 9.0 mph 70 % 0.00 in
12:06 90.3 °F 78.3 °F 29.93 in SSW 5.0 mph 8.0 mph 68 % 0.00 in
12:11 90.3 °F 78.8 °F 29.93 in SSW 3.0 mph 10.0 mph 69 % 0.00 in
12:17 90.1 °F 78.1 °F 29.93 in SE 4.0 mph 10.0 mph 68 % 0.00 in
12:22 90.3 °F 78.3 °F 29.93 in SE 5.0 mph 10.0 mph 68 % 0.00 in
12:27 90.7 °F 77.7 °F 29.93 in South 3.0 mph 9.0 mph 66 % 0.00 in
12:32 91.0 °F 78.6 °F 29.92 in SSW 5.0 mph 10.0 mph 67 % 0.00 in
12:37 91.4 °F 77.9 °F 29.92 in SSW 4.0 mph 10.0 mph 65 % 0.00 in
12:42 91.8 °F 79.2 °F 29.92 in WSW 3.0 mph 10.0 mph 67 % 0.00 in
12:47 91.6 °F 77.7 °F 29.92 in WSW 3.0 mph 10.0 mph 64 % 0.00 in
12:52 91.6 °F 76.6 °F 29.92 in SSE 5.0 mph 10.0 mph 62 % 0.00 in
12:57 91.6 °F 77.2 °F 29.91 in SSE 3.0 mph 9.0 mph 63 % 0.00 in
13:02 92.3 °F 78.3 °F 29.91 in SSE 3.0 mph 9.0 mph 64 % 0.00 in
13:07 92.8 °F 78.8 °F 29.91 in SE 3.0 mph 9.0 mph 64 % 0.00 in
13:12 93.0 °F 77.5 °F 29.91 in South 7.0 mph 9.0 mph 61 % 0.00 in
13:17 93.0 °F 78.1 °F 29.91 in SW 3.0 mph 10.0 mph 62 % 0.00 in
13:22 93.0 °F 78.1 °F 29.90 in SSE 8.0 mph 10.0 mph 62 % 0.00 in
13:27 93.4 °F 78.8 °F 29.90 in South 5.0 mph 10.0 mph 63 % 0.00 in
13:32 93.4 °F 77.4 °F 29.90 in South 3.0 mph 10.0 mph 60 % 0.00 in
13:37 93.0 °F 77.0 °F 29.89 in SSW 2.0 mph 11.0 mph 60 % 0.00 in
13:42 93.6 °F 78.6 °F 29.89 in SSE 4.0 mph 11.0 mph 62 % 0.00 in
13:47 93.7 °F 78.8 °F 29.89 in SW 6.0 mph 11.0 mph 62 % 0.00 in
13:52 93.7 °F 79.7 °F 29.89 in SE 3.0 mph 10.0 mph 64 % 0.00 in
13:57 93.9 °F 78.4 °F 29.89 in South 4.0 mph 10.0 mph 61 % 0.00 in
14:02 93.7 °F 78.3 °F 29.89 in SSE 8.0 mph 10.0 mph 61 % 0.00 in
14:07 93.6 °F 77.5 °F 29.89 in SE 3.0 mph 11.0 mph 60 % 0.00 in
14:12 93.7 °F 78.8 °F 29.88 in South 10.0 mph 11.0 mph 62 % 0.00 in
14:17 93.7 °F 77.7 °F 29.88 in ESE 5.0 mph 11.0 mph 60 % 0.00 in
14:22 93.4 °F 76.8 °F 29.88 in SE 4.0 mph 10.0 mph 59 % 0.00 in
14:27 93.2 °F 76.6 °F 29.88 in SE 6.0 mph 10.0 mph 59 % 0.00 in
14:32 93.2 °F 77.2 °F 29.88 in SSE 7.0 mph 10.0 mph 60 % 0.00 in
14:37 93.4 °F 77.9 °F 29.88 in SE 3.0 mph 10.0 mph 61 % 0.00 in
14:42 93.6 °F 76.6 °F 29.87 in ESE 7.0 mph 10.0 mph 58 % 0.00 in
14:47 93.2 °F 76.6 °F 29.87 in SSE 3.0 mph 10.0 mph 59 % 0.00 in
14:52 93.2 °F 77.2 °F 29.87 in East 4.0 mph 9.0 mph 60 % 0.00 in
14:57 93.2 °F 77.7 °F 29.86 in East 9.0 mph 9.0 mph 61 % 0.00 in
15:02 93.4 °F 75.4 °F 29.86 in ESE 4.0 mph 10.0 mph 56 % 0.00 in
15:07 93.7 °F 76.3 °F 29.86 in SE 5.0 mph 10.0 mph 57 % 0.00 in
15:12 93.4 °F 75.4 °F 29.85 in South 7.0 mph 10.0 mph 56 % 0.00 in
15:17 93.4 °F 75.9 °F 29.85 in SSE 5.0 mph 8.0 mph 57 % 0.00 in
15:22 93.7 °F 75.7 °F 29.85 in SSW 6.0 mph 9.0 mph 56 % 0.00 in
15:27 93.9 °F 75.7 °F 29.85 in SSW 3.0 mph 9.0 mph 56 % 0.00 in
15:32 93.9 °F 76.3 °F 29.85 in SE 3.0 mph 9.0 mph 57 % 0.00 in
15:37 93.9 °F 77.9 °F 29.85 in SE 5.0 mph 7.0 mph 60 % 0.00 in
15:42 93.0 °F 77.5 °F 29.85 in SSW 5.0 mph 13.0 mph 61 % 0.00 in
15:47 92.8 °F 77.9 °F 29.85 in SSE 7.0 mph 13.0 mph 62 % 0.00 in
15:52 92.8 °F 77.9 °F 29.85 in SE 5.0 mph 13.0 mph 62 % 0.00 in
15:57 92.5 °F 78.1 °F 29.85 in SE 8.0 mph 13.0 mph 63 % 0.00 in
16:02 92.3 °F 78.3 °F 29.85 in SSW 7.0 mph 13.0 mph 64 % 0.00 in
16:07 91.8 °F 77.4 °F 29.85 in ESE 11.0 mph 13.0 mph 63 % 0.00 in
16:11 91.0 °F 78.1 °F 29.85 in SSW 9.0 mph 18.0 mph 66 % 0.00 in
16:17 90.3 °F 77.4 °F 29.85 in SSE 5.0 mph 18.0 mph 66 % 0.00 in
16:22 90.9 °F 77.5 °F 29.85 in East 12.0 mph 18.0 mph 65 % 0.00 in
16:27 90.7 °F 76.8 °F 29.85 in South 6.0 mph 16.0 mph 64 % 0.00 in
16:32 90.9 °F 77.0 °F 29.86 in South 10.0 mph 14.0 mph 64 % 0.00 in
16:37 90.9 °F 75.6 °F 29.86 in South 7.0 mph 14.0 mph 61 % 0.00 in
16:42 90.7 °F 76.3 °F 29.85 in SSW 2.0 mph 12.0 mph 63 % 0.00 in
16:47 90.5 °F 74.7 °F 29.85 in SSE 5.0 mph 12.0 mph 60 % 0.00 in
16:52 90.3 °F 75.9 °F 29.85 in ESE 7.0 mph 11.0 mph 63 % 0.00 in
16:57 90.0 °F 74.1 °F 29.86 in SE 7.0 mph 10.0 mph 60 % 0.00 in
17:02 90.0 °F 73.8 °F 29.86 in East 5.0 mph 10.0 mph 59 % 0.00 in
17:07 90.1 °F 73.4 °F 29.85 in East 7.0 mph 10.0 mph 58 % 0.00 in
17:12 90.0 °F 74.1 °F 29.85 in East 3.0 mph 13.0 mph 60 % 0.00 in
17:17 90.1 °F 74.3 °F 29.85 in ESE 5.0 mph 13.0 mph 60 % 0.00 in
17:22 90.0 °F 74.7 °F 29.85 in SE 5.0 mph 13.0 mph 61 % 0.00 in
17:27 90.0 °F 75.7 °F 29.85 in SE 4.0 mph 11.0 mph 63 % 0.00 in
17:32 90.1 °F 75.4 °F 29.86 in East 5.0 mph 11.0 mph 62 % 0.00 in
17:37 90.3 °F 75.9 °F 29.86 in SSE 6.0 mph 12.0 mph 63 % 0.00 in
17:42 90.3 °F 76.5 °F 29.86 in SSE 4.0 mph 12.0 mph 64 % 0.00 in
17:47 90.3 °F 76.5 °F 29.86 in South 5.0 mph 12.0 mph 64 % 0.00 in
17:48 90.3 °F 76.5 °F 29.86 in SSW 5.0 mph 12.0 mph 64 % 0.00 in
17:53 90.3 °F 77.4 °F 29.85 in SE 3.0 mph 9.0 mph 66 % 0.00 in
17:57 90.0 °F 77.5 °F 29.85 in East 10.0 mph 10.0 mph 67 % 0.00 in
18:02 89.4 °F 78.3 °F 29.85 in SSE 2.0 mph 11.0 mph 70 % 0.00 in
18:07 89.2 °F 78.6 °F 29.85 in ESE 1.0 mph 11.0 mph 71 % 0.00 in
18:12 89.2 °F 78.6 °F 29.84 in ESE 6.0 mph 11.0 mph 71 % 0.00 in
18:17 88.7 °F 77.7 °F 29.85 in ESE 7.0 mph 10.0 mph 70 % 0.00 in
18:22 88.2 °F 77.5 °F 29.85 in East 6.0 mph 10.0 mph 71 % 0.00 in
18:27 87.8 °F 77.7 °F 29.85 in SE 9.0 mph 11.0 mph 72 % 0.00 in
18:32 87.8 °F 77.7 °F 29.85 in SE 7.0 mph 11.0 mph 72 % 0.00 in
18:37 87.6 °F 77.0 °F 29.85 in South 6.0 mph 11.0 mph 71 % 0.00 in
18:42 87.4 °F 76.5 °F 29.86 in SE 6.0 mph 11.0 mph 70 % 0.00 in
18:47 87.3 °F 76.3 °F 29.86 in SSE 3.0 mph 11.0 mph 70 % 0.00 in
18:52 87.1 °F 76.1 °F 29.86 in East 9.0 mph 12.0 mph 70 % 0.00 in
18:57 86.7 °F 75.4 °F 29.85 in SSE 4.0 mph 12.0 mph 69 % 0.00 in
19:02 86.4 °F 74.5 °F 29.86 in SE 5.0 mph 12.0 mph 68 % 0.00 in
19:07 86.2 °F 74.3 °F 29.86 in SSE 5.0 mph 10.0 mph 68 % 0.00 in
19:12 86.0 °F 74.7 °F 29.86 in SSE 6.0 mph 10.0 mph 69 % 0.00 in
19:17 85.6 °F 74.3 °F 29.86 in SSW 2.0 mph 9.0 mph 69 % 0.00 in
19:22 85.5 °F 74.5 °F 29.86 in SSE 3.0 mph 9.0 mph 70 % 0.00 in
19:27 85.3 °F 74.8 °F 29.86 in ESE 3.0 mph 9.0 mph 71 % 0.00 in
19:32 84.9 °F 74.8 °F 29.86 in SE 4.0 mph 8.0 mph 72 % 0.00 in
19:33 84.9 °F 74.8 °F 29.86 in SE 3.0 mph 8.0 mph 72 % 0.00 in
19:38 84.6 °F 75.4 °F 29.86 in SE 3.0 mph 8.0 mph 74 % 0.00 in
19:43 84.4 °F 75.6 °F 29.87 in ESE 2.0 mph 8.0 mph 75 % 0.00 in
19:48 84.2 °F 75.7 °F 29.87 in ESE 2.0 mph 8.0 mph 76 % 0.00 in
19:53 84.0 °F 75.6 °F 29.87 in SSE 1.0 mph 5.0 mph 76 % 0.00 in
19:58 83.8 °F 75.9 °F 29.87 in ESE 2.0 mph 5.0 mph 77 % 0.00 in
20:03 83.7 °F 75.7 °F 29.87 in ESE 2.0 mph 4.0 mph 77 % 0.00 in
20:08 83.7 °F 76.1 °F 29.88 in SE 2.0 mph 4.0 mph 78 % 0.00 in
20:13 83.5 °F 76.3 °F 29.88 in ESE 1.0 mph 3.0 mph 79 % 0.00 in
20:18 83.5 °F 76.3 °F 29.88 in ESE 1.0 mph 3.0 mph 79 % 0.00 in
20:23 83.5 °F 76.6 °F 29.88 in ESE 2.0 mph 3.0 mph 80 % 0.00 in
20:28 83.5 °F 77.4 °F 29.88 in ESE 4.0 mph 6.0 mph 82 % 0.00 in
20:33 83.5 °F 77.7 °F 29.89 in ESE 4.0 mph 6.0 mph 83 % 0.00 in
20:38 83.7 °F 77.9 °F 29.89 in ESE 3.0 mph 6.0 mph 83 % 0.00 in
20:43 83.7 °F 78.3 °F 29.89 in SE 3.0 mph 6.0 mph 84 % 0.00 in
20:48 83.7 °F 78.3 °F 29.89 in SE 3.0 mph 6.0 mph 84 % 0.00 in
20:53 83.7 °F 78.3 °F 29.89 in South 3.0 mph 8.0 mph 84 % 0.00 in
20:58 83.7 °F 78.3 °F 29.89 in SE 3.0 mph 10.0 mph 84 % 0.00 in
21:03 83.7 °F 78.6 °F 29.90 in South 1.0 mph 10.0 mph 85 % 0.00 in
21:08 83.5 °F 78.4 °F 29.90 in SSE 4.0 mph 10.0 mph 85 % 0.00 in
21:13 83.5 °F 78.4 °F 29.90 in SSE 4.0 mph 7.0 mph 85 % 0.00 in
21:18 83.5 °F 78.8 °F 29.90 in East 6.0 mph 9.0 mph 86 % 0.00 in
21:23 83.5 °F 78.8 °F 29.91 in SSE 5.0 mph 9.0 mph 86 % 0.00 in
21:28 83.3 °F 78.6 °F 29.91 in SE 6.0 mph 9.0 mph 86 % 0.00 in
21:33 83.3 °F 78.6 °F 29.91 in ESE 6.0 mph 11.0 mph 86 % 0.00 in
21:34 83.3 °F 78.6 °F 29.91 in East 6.0 mph 11.0 mph 86 % 0.00 in
21:39 83.3 °F 78.6 °F 29.91 in SE 3.0 mph 11.0 mph 86 % 0.00 in
21:44 83.1 °F 78.4 °F 29.91 in SSE 2.0 mph 11.0 mph 86 % 0.00 in
21:49 83.1 °F 78.4 °F 29.91 in SE 2.0 mph 10.0 mph 86 % 0.00 in
21:54 83.1 °F 78.4 °F 29.91 in ESE 3.0 mph 10.0 mph 86 % 0.00 in
21:59 82.9 °F 78.6 °F 29.92 in SE 5.0 mph 9.0 mph 87 % 0.00 in
22:04 82.9 °F 78.6 °F 29.92 in ESE 6.0 mph 8.0 mph 87 % 0.00 in
22:09 82.8 °F 78.4 °F 29.92 in SE 2.0 mph 8.0 mph 87 % 0.00 in
22:15 82.8 °F 78.8 °F 29.92 in ESE 4.0 mph 8.0 mph 88 % 0.00 in
22:19 82.6 °F 78.6 °F 29.93 in South 3.0 mph 8.0 mph 88 % 0.00 in
22:20 82.6 °F 78.6 °F 29.93 in SE 8.0 mph 8.0 mph 88 % 0.00 in
22:21 82.6 °F 78.6 °F 29.93 in SE 3.0 mph 8.0 mph 88 % 0.00 in
22:24 82.6 °F 78.6 °F 29.93 in SE 5.0 mph 8.0 mph 88 % 0.00 in
22:26 82.6 °F 78.6 °F 29.93 in SE 2.0 mph 8.0 mph 88 % 0.00 in
22:31 82.6 °F 78.6 °F 29.93 in ESE 6.0 mph 8.0 mph 88 % 0.00 in
22:33 82.6 °F 78.6 °F 29.93 in SE 3.0 mph 8.0 mph 88 % 0.00 in
22:38 82.4 °F 78.8 °F 29.93 in SE 4.0 mph 8.0 mph 89 % 0.00 in
22:43 82.2 °F 78.6 °F 29.93 in East 5.0 mph 7.0 mph 89 % 0.00 in
22:48 82.2 °F 78.6 °F 29.93 in ESE 6.0 mph 7.0 mph 89 % 0.00 in
22:53 82.2 °F 78.6 °F 29.93 in ESE 2.0 mph 9.0 mph 89 % 0.00 in
22:58 82.0 °F 78.4 °F 29.93 in SSE 5.0 mph 9.0 mph 89 % 0.00 in
23:03 82.0 °F 78.8 °F 29.93 in SE 3.0 mph 9.0 mph 90 % 0.00 in
23:08 81.9 °F 78.6 °F 29.93 in SE 4.0 mph 8.0 mph 90 % 0.00 in
23:13 81.9 °F 78.6 °F 29.93 in SE 3.0 mph 8.0 mph 90 % 0.00 in
23:18 81.9 °F 78.6 °F 29.94 in ESE 3.0 mph 7.0 mph 90 % 0.00 in
23:23 81.9 °F 78.6 °F 29.94 in SSE 2.0 mph 7.0 mph 90 % 0.00 in
23:28 81.7 °F 78.4 °F 29.94 in SSE 4.0 mph 6.0 mph 90 % 0.00 in
23:33 81.7 °F 78.4 °F 29.94 in ESE 2.0 mph 6.0 mph 90 % 0.00 in
23:38 81.5 °F 78.3 °F 29.94 in ESE 4.0 mph 6.0 mph 90 % 0.00 in
23:43 81.3 °F 78.4 °F 29.94 in SE 2.0 mph 4.0 mph 91 % 0.00 in
23:48 81.3 °F 78.4 °F 29.94 in SE 3.0 mph 5.0 mph 91 % 0.00 in
23:53 81.1 °F 78.3 °F 29.93 in SSE 2.0 mph 5.0 mph 91 % 0.00 in
23:56 81.1 °F 78.3 °F 29.93 in SSE 2.0 mph 6.0 mph 91 % 0.00 in
Spring, Texas: Villages of Bridgestone
Compliments of Weather Underground - 3 mb

Script developed by  Jim McMurry - jmcmurry@mwt.net Adapted for the template by  Wim van der Kuil - Leuven-Template.eu

You find our weather info also at:

UK Metoffice

WeatherCloud

Weather Underground

Mid-South Weather Network

AWEKAS

Citizen Weather Observer Program (CWOP)

HAMweather, WeatherForYou, PWS Weather

Equipment we use:

Weather-station
Davis Vantage Vue

Weather-program
Meteohub

Weather-server
Debian 7.9 x86 (Guest)

Provider
DreamHost

Davis Vantage Vue

Meteohub

Debian 7.9 x86 (Guest)

DreamHost